Golden Meadow, Louisiana
Current Conditions -  °F | °C
As of 10:55 PM on Thursday 30 Oct 2014 (Local Time) from KXPY Reporting Station
Clear Clear  
Wind Chill: 18°   Ceiling: Unl
Heat Index: 18°   Visibility: 10mi
Dew Point: 11°   Wind: 5mph
Humidity: 64%   Direction: 350°N
Pressure: 30.09"   Gusts: NA
Location:  29.38°N, 90.26°W
Report Text: KXPY 310355Z AUTO 35004KT 10SM CLR 18/11 A3009 RMK A01
Loading
Personal Weather Stations






























Interactive Weather Map
Tropical Storm Tracking
New forecast layout! Learn more

10-Day Weather Forecast

Advertisements
Track Severe Weather on mobile